Time;durP1;ratioP1;P1;durP2;ratioP2;P2;SDS_P1;SDS_P2;PMS_P1;PMS_P2;Temp;Humidity;BMP_temperature;BMP_pressure;BME280_temperature;BME280_humidity;BME280_pressure;Samples;Min_cycle;Max_cycle;Signal;HPM_P1;HPM_P2
2023/05/27 00:17:14;;;;;;;8.90;4.00;;;10.50;86.50;;;;;;4558622;29;20625;-87
2023/05/27 00:48:21;;;;;;;12.50;4.33;;;10.20;88.80;;;;;;4641839;29;20649;-85
2023/05/27 01:28:13;;;;;;;6.83;3.63;;;9.70;91.40;;;;;;4776143;28;20756;-82
2023/05/27 01:49:03;;;;;;;13.87;3.80;;;9.40;94.60;;;;;;4706072;29;20245;-85
2023/05/27 02:19:28;;;;;;;14.73;4.30;;;9.20;96.80;;;;;;4699712;29;20260;-83
2023/05/27 02:44:54;;;;;;;9.33;4.13;;;9.10;99.40;;;;;;4805211;28;20397;-86
2023/05/27 03:25:34;;;;;;;9.93;4.53;;;9.30;99.90;;;;;;4887156;28;20279;-84
2023/05/27 03:45:52;;;;;;;9.30;4.17;;;9.60;99.90;;;;;;4749935;29;20213;-84
2023/05/27 04:06:00;;;;;;;11.87;4.33;;;9.90;97.70;;;;;;4635373;29;20388;-83
2023/05/27 04:31:28;;;;;;;9.13;3.63;;;10.10;96.20;;;;;;4632673;29;20249;-84
2023/05/27 05:01:58;;;;;;;7.53;3.20;;;10.70;94.40;;;;;;4648339;29;20834;-82
2023/05/27 05:06:17;;;;;;;8.03;3.30;;;10.80;93.90;;;;;;4722519;29;20500;-83
2023/05/27 05:22:00;;;;;;;9.13;3.23;;;11.40;91.50;;;;;;4698684;29;20229;-84
2023/05/27 05:52:21;;;;;;;6.00;2.77;;;12.80;86.10;;;;;;4715358;29;20820;-82
2023/05/27 06:12:56;;;;;;;6.37;2.30;;;13.10;85.20;;;;;;4562478;30;20326;-85
2023/05/27 06:17:17;;;;;;;6.27;2.47;;;13.20;83.10;;;;;;4459168;30;21281;-84
2023/05/27 06:37:59;;;;;;;4.43;2.50;;;13.90;80.10;;;;;;4592661;30;20407;-86
2023/05/27 07:03:15;;;;;;;5.27;2.33;;;14.40;76.80;;;;;;4615928;29;20532;-81
2023/05/27 07:39:07;;;;;;;3.47;1.93;;;15.60;67.80;;;;;;4551434;30;20210;-83
2023/05/27 08:09:32;;;;;;;4.27;2.10;;;15.90;51.20;;;;;;4700488;29;20395;-84
2023/05/27 08:34:48;;;;;;;7.23;2.33;;;16.90;49.10;;;;;;4820509;29;20411;-83
2023/05/27 08:59:54;;;;;;;2.87;1.80;;;16.80;45.10;;;;;;4743244;29;20782;-85
2023/05/27 09:20:06;;;;;;;3.03;1.50;;;17.10;44.30;;;;;;4630481;29;21211;-86
2023/05/27 09:55:59;;;;;;;3.00;1.87;;;17.20;40.30;;;;;;4885928;28;20481;-85
2023/05/27 10:25:53;;;;;;;1.97;1.60;;;17.30;35.50;;;;;;4817429;28;21170;-83
2023/05/27 10:51:10;;;;;;;2.60;1.60;;;17.30;37.30;;;;;;4675113;29;20717;-85
2023/05/27 11:16:59;;;;;;;2.57;1.40;;;17.60;38.40;;;;;;4799859;28;20205;-88
2023/05/27 11:47:20;;;;;;;2.17;1.47;;;17.50;35.00;;;;;;4841487;28;20212;-83
2023/05/27 12:17:57;;;;;;;2.07;1.10;;;17.80;33.70;;;;;;4834515;28;20788;-82
2023/05/27 12:48:20;;;;;;;5.87;1.70;;;19.00;34.20;;;;;;4838851;28;20672;-83
2023/05/27 13:08:42;;;;;;;3.40;1.40;;;19.70;32.80;;;;;;4714479;29;20239;-84
2023/05/27 13:34:17;;;;;;;2.37;1.43;;;20.80;34.50;;;;;;4742525;29;20203;-82
2023/05/27 13:38:30;;;;;;;1.77;1.27;;;20.40;34.40;;;;;;4702990;29;20689;-83
2023/05/27 13:59:03;;;;;;;4.70;1.40;;;20.90;34.20;;;;;;4735009;29;20603;-85
2023/05/27 14:19:10;;;;;;;2.13;1.50;;;24.30;32.60;;;;;;4648362;29;20833;-85
2023/05/27 14:44:59;;;;;;;2.67;1.30;;;25.10;32.60;;;;;;4697685;29;20673;-84
2023/05/27 15:35:31;;;;;;;2.60;1.50;;;23.00;33.50;;;;;;4558340;29;20645;-82
2023/05/27 15:55:57;;;;;;;2.58;1.38;;;22.80;32.70;;;;;;4710072;29;20741;-84
2023/05/27 16:21:11;;;;;;;4.00;1.60;;;18.80;35.00;;;;;;4647376;29;20204;-84
2023/05/27 17:22:19;;;;;;;2.73;1.47;;;17.20;35.00;;;;;;4659646;29;20408;-83
2023/05/27 18:23:13;;;;;;;2.70;1.57;;;15.80;37.40;;;;;;4946082;28;20323;-83
2023/05/27 18:27:34;;;;;;;4.47;2.20;;;15.70;37.70;;;;;;4792619;28;21193;-83
2023/05/27 18:43:07;;;;;;;2.83;1.57;;;15.50;38.60;;;;;;4775545;28;20499;-85
2023/05/27 19:03:48;;;;;;;6.53;3.17;;;14.80;40.60;;;;;;4757212;29;20272;-85
2023/05/27 19:08:08;;;;;;;4.47;2.90;;;14.70;40.70;;;;;;4681362;29;20642;-84
2023/05/27 19:28:25;;;;;;;7.67;3.63;;;14.00;43.20;;;;;;4661705;29;20568;-84
2023/05/27 19:44:13;;;;;;;7.47;4.03;;;12.80;47.80;;;;;;4691632;29;20271;-87
2023/05/27 20:14:17;;;;;;;9.13;5.57;;;11.70;80.20;;;;;;4795115;29;20567;-84
2023/05/27 20:34:58;;;;;;;11.03;7.10;;;11.10;84.50;;;;;;4812708;28;20247;-86
2023/05/27 21:00:03;;;;;;;8.90;4.40;;;10.80;82.20;;;;;;4706202;29;20332;-85
2023/05/27 21:25:29;;;;;;;7.47;5.10;;;12.00;73.80;;;;;;4681309;29;20422;-84
2023/05/27 22:01:14;;;;;;;10.70;7.23;;;10.80;83.80;;;;;;4968410;28;20587;-85
2023/05/27 22:31:27;;;;;;;5.30;4.00;;;10.30;84.90;;;;;;4886974;28;20640;-85
2023/05/27 22:57:02;;;;;;;17.00;12.97;;;10.00;86.90;;;;;;4862681;28;20215;-86
2023/05/27 23:16:54;;;;;;;9.03;7.13;;;9.30;90.10;;;;;;4670280;29;20617;-85
2023/05/27 23:42:38;;;;;;;8.07;5.87;;;8.50;90.70;;;;;;4626424;29;20304;-85
